Time;durP1;ratioP1;P1;durP2;ratioP2;P2;SDS_P1;SDS_P2;PMS_P1;PMS_P2;Temp;Humidity;BMP_temperature;BMP_pressure;BME280_temperature;BME280_humidity;BME280_pressure;Samples;Min_cycle;Max_cycle;Signal;HPM_P1;HPM_P2
2021/12/22 00:01:56;;;;;;;3.28;2.45;;;;;;;;;;5008949;28;20025;-61
2021/12/22 00:04:24;;;;;;;2.92;2.47;;;;;;;;;;5009508;28;20113;-61
2021/12/22 00:06:50;;;;;;;2.80;2.40;;;;;;;;;;5007930;28;20050;-63
2021/12/22 00:09:16;;;;;;;3.83;2.30;;;;;;;;;;5009582;28;20521;-63
2021/12/22 00:11:43;;;;;;;3.22;2.33;;;;;;;;;;5008709;28;20053;-63
2021/12/22 00:14:09;;;;;;;3.03;2.17;;;;;;;;;;5011410;28;20026;-62
2021/12/22 00:16:35;;;;;;;3.13;2.10;;;;;;;;;;5008668;28;20036;-62
2021/12/22 00:19:01;;;;;;;2.25;2.05;;;;;;;;;;5009065;28;20022;-62
2021/12/22 00:21:27;;;;;;;5.40;2.75;;;;;;;;;;5008301;28;20029;-64
2021/12/22 00:23:54;;;;;;;3.50;2.42;;;;;;;;;;5008747;28;20110;-62
2021/12/22 00:26:20;;;;;;;3.22;2.25;;;;;;;;;;5013070;28;20029;-62
2021/12/22 00:28:47;;;;;;;3.58;2.22;;;;;;;;;;5011775;28;20029;-62
2021/12/22 00:31:14;;;;;;;4.03;2.72;;;;;;;;;;5012683;28;20463;-62
2021/12/22 00:33:49;;;;;;;3.15;2.20;;;;;;;;;;5011879;28;20034;-62
2021/12/22 00:36:17;;;;;;;3.42;2.13;;;;;;;;;;5012745;28;20034;-62
2021/12/22 00:38:43;;;;;;;3.72;2.38;;;;;;;;;;5011836;28;20069;-62
2021/12/22 00:41:09;;;;;;;2.97;2.20;;;;;;;;;;5012769;28;20026;-62
2021/12/22 00:43:35;;;;;;;2.70;1.77;;;;;;;;;;5011543;28;20094;-62
2021/12/22 00:46:01;;;;;;;3.97;2.15;;;;;;;;;;5012299;28;20026;-62
2021/12/22 00:48:27;;;;;;;3.50;2.33;;;;;;;;;;5012110;28;20467;-64
2021/12/22 00:50:53;;;;;;;3.30;2.00;;;;;;;;;;5011850;28;20029;-63
2021/12/22 00:53:19;;;;;;;3.08;2.38;;;;;;;;;;5012321;28;20022;-62
2021/12/22 00:55:46;;;;;;;3.53;2.30;;;;;;;;;;5011405;28;20037;-62
2021/12/22 00:58:12;;;;;;;2.88;2.20;;;;;;;;;;5012274;28;20550;-62
2021/12/22 01:00:39;;;;;;;3.22;1.85;;;;;;;;;;5012208;28;20025;-62
2021/12/22 01:03:05;;;;;;;2.88;1.90;;;;;;;;;;5012668;28;20022;-62
2021/12/22 01:05:31;;;;;;;3.13;2.08;;;;;;;;;;5011200;28;20021;-63
2021/12/22 01:07:57;;;;;;;2.83;1.90;;;;;;;;;;5012166;28;20026;-62
2021/12/22 01:10:27;;;;;;;2.83;1.88;;;;;;;;;;5011932;28;20022;-63
2021/12/22 01:12:55;;;;;;;2.35;1.95;;;;;;;;;;5011634;28;20034;-62
2021/12/22 01:15:21;;;;;;;3.35;2.47;;;;;;;;;;5011985;28;20038;-62
2021/12/22 01:17:51;;;;;;;2.58;2.10;;;;;;;;;;5012601;28;20018;-62
2021/12/22 01:20:29;;;;;;;2.65;2.00;;;;;;;;;;5013643;28;20055;-62
2021/12/22 01:23:05;;;;;;;2.95;2.58;;;;;;;;;;5013657;28;20018;-62
2021/12/22 01:25:41;;;;;;;3.33;2.10;;;;;;;;;;5012754;28;20030;-61
2021/12/22 01:28:07;;;;;;;2.95;1.90;;;;;;;;;;4994126;28;20496;-62
2021/12/22 01:30:34;;;;;;;3.10;2.00;;;;;;;;;;4993366;28;20081;-61
2021/12/22 01:33:01;;;;;;;3.38;2.55;;;;;;;;;;5004198;28;20026;-61
2021/12/22 01:35:29;;;;;;;2.90;2.22;;;;;;;;;;5012525;28;20034;-64
2021/12/22 01:37:55;;;;;;;3.05;2.15;;;;;;;;;;5013440;28;20029;-61
2021/12/22 01:40:21;;;;;;;2.83;2.20;;;;;;;;;;5012868;28;20036;-61
2021/12/22 01:42:48;;;;;;;2.97;2.15;;;;;;;;;;5012637;28;20084;-61
2021/12/22 01:45:48;;;;;;;3.08;2.10;;;;;;;;;;5013445;28;20028;-61
2021/12/22 01:51:07;;;;;;;2.92;1.70;;;;;;;;;;5012694;28;20434;-62
2021/12/22 01:53:45;;;;;;;3.22;1.95;;;;;;;;;;5011931;28;20080;-62
2021/12/22 01:56:21;;;;;;;2.45;1.92;;;;;;;;;;5011365;28;20368;-62
2021/12/22 01:58:48;;;;;;;2.67;2.22;;;;;;;;;;5012513;28;20033;-62
2021/12/22 02:01:15;;;;;;;2.25;1.85;;;;;;;;;;5012780;28;20030;-62
2021/12/22 02:03:41;;;;;;;3.20;2.22;;;;;;;;;;5012086;28;20061;-62
2021/12/22 02:06:11;;;;;;;3.63;2.33;;;;;;;;;;5012881;28;20036;-62
2021/12/22 02:08:38;;;;;;;2.95;1.83;;;;;;;;;;5011993;28;20018;-62
2021/12/22 02:11:04;;;;;;;2.88;1.70;;;;;;;;;;5012598;28;20479;-62
2021/12/22 02:13:36;;;;;;;3.25;2.50;;;;;;;;;;5011865;28;20117;-64
2021/12/22 02:16:07;;;;;;;3.13;1.80;;;;;;;;;;5013089;28;20121;-61
2021/12/22 02:18:34;;;;;;;3.33;2.30;;;;;;;;;;5011825;28;20434;-61
2021/12/22 02:21:00;;;;;;;3.00;1.88;;;;;;;;;;5012466;28;20122;-61
2021/12/22 02:23:26;;;;;;;2.65;2.05;;;;;;;;;;5012404;28;20463;-61
2021/12/22 02:25:57;;;;;;;3.95;2.40;;;;;;;;;;5011777;28;20049;-61
2021/12/22 02:28:28;;;;;;;2.60;1.77;;;;;;;;;;5012840;28;20026;-61
2021/12/22 02:30:54;;;;;;;1.63;1.52;;;;;;;;;;5011959;28;20265;-61
2021/12/22 02:33:32;;;;;;;1.77;1.50;;;;;;;;;;5011845;28;20030;-61
2021/12/22 02:38:40;;;;;;;4.25;2.38;;;;;;;;;;5012126;28;20120;-63
2021/12/22 02:41:09;;;;;;;3.15;2.00;;;;;;;;;;5011767;28;20038;-61
2021/12/22 02:43:42;;;;;;;2.25;1.65;;;;;;;;;;5011484;28;20364;-61
2021/12/22 02:46:08;;;;;;;2.95;2.08;;;;;;;;;;5011807;28;20036;-60
2021/12/22 02:48:34;;;;;;;2.55;1.90;;;;;;;;;;5010478;28;20063;-61
2021/12/22 02:51:02;;;;;;;2.80;1.88;;;;;;;;;;5011667;28;20030;-61
2021/12/22 02:53:45;;;;;;;2.67;2.00;;;;;;;;;;5012087;28;20383;-62
2021/12/22 03:04:14;;;;;;;2.55;1.88;;;;;;;;;;5011862;28;20033;-61
2021/12/22 03:07:06;;;;;;;2.25;1.70;;;;;;;;;;5011068;28;20022;-61
2021/12/22 03:09:28;;;;;;;2.95;1.95;;;;;;;;;;5011506;28;20041;-61
2021/12/22 03:11:55;;;;;;;2.80;2.40;;;;;;;;;;5011637;28;20026;-61
2021/12/22 03:14:22;;;;;;;2.75;2.13;;;;;;;;;;5012690;28;20040;-61
2021/12/22 03:16:49;;;;;;;2.60;1.88;;;;;;;;;;5010754;28;20038;-61
2021/12/22 03:19:22;;;;;;;2.75;1.90;;;;;;;;;;5011953;28;20021;-61
2021/12/22 03:21:51;;;;;;;2.72;1.88;;;;;;;;;;5010480;28;20029;-61
2021/12/22 03:24:20;;;;;;;1.92;1.63;;;;;;;;;;5011782;28;20040;-61
2021/12/22 03:26:46;;;;;;;2.10;1.65;;;;;;;;;;5011284;28;20340;-61
2021/12/22 03:29:14;;;;;;;3.58;2.28;;;;;;;;;;5011991;28;20404;-61
2021/12/22 03:31:41;;;;;;;2.30;1.83;;;;;;;;;;5011180;28;20018;-61
2021/12/22 03:34:08;;;;;;;2.10;1.88;;;;;;;;;;5011603;28;20096;-61
2021/12/22 03:36:34;;;;;;;2.67;1.70;;;;;;;;;;5011088;28;20060;-61
2021/12/22 03:39:00;;;;;;;3.85;1.70;;;;;;;;;;5011789;28;20030;-61
2021/12/22 03:41:26;;;;;;;3.40;2.05;;;;;;;;;;5011376;28;20026;-61
2021/12/22 03:43:52;;;;;;;3.00;2.10;;;;;;;;;;5010864;28;20660;-61
2021/12/22 03:46:18;;;;;;;3.13;1.88;;;;;;;;;;5011498;28;20038;-61
2021/12/22 03:48:44;;;;;;;2.50;1.83;;;;;;;;;;5010993;28;20076;-61
2021/12/22 03:51:10;;;;;;;2.50;2.03;;;;;;;;;;5011861;28;20033;-61
2021/12/22 03:53:36;;;;;;;2.72;1.70;;;;;;;;;;5010110;28;20418;-62
2021/12/22 03:56:03;;;;;;;2.50;1.85;;;;;;;;;;5011298;28;20033;-60
2021/12/22 03:58:30;;;;;;;2.40;1.98;;;;;;;;;;5011529;28;20522;-61
2021/12/22 04:00:56;;;;;;;3.80;2.15;;;;;;;;;;5014123;28;20030;-62
2021/12/22 04:03:26;;;;;;;2.42;1.70;;;;;;;;;;5014719;28;20475;-61
2021/12/22 04:05:52;;;;;;;3.30;2.10;;;;;;;;;;5014061;28;20156;-61
2021/12/22 04:08:18;;;;;;;5.70;2.25;;;;;;;;;;5015401;28;20018;-61
2021/12/22 04:10:49;;;;;;;3.70;2.25;;;;;;;;;;5014153;28;20030;-61
2021/12/22 04:13:15;;;;;;;2.65;1.85;;;;;;;;;;5017980;28;20037;-62
2021/12/22 04:15:42;;;;;;;2.38;1.80;;;;;;;;;;5014233;28;20057;-61
2021/12/22 04:18:08;;;;;;;2.97;2.00;;;;;;;;;;5015101;28;20022;-61
2021/12/22 04:20:34;;;;;;;5.35;2.47;;;;;;;;;;5014408;28;20030;-63
2021/12/22 04:23:01;;;;;;;2.95;1.80;;;;;;;;;;5014203;28;20029;-61
2021/12/22 04:25:27;;;;;;;2.30;1.83;;;;;;;;;;5014943;28;20030;-62
2021/12/22 04:27:56;;;;;;;2.55;1.80;;;;;;;;;;5014184;28;20335;-61
2021/12/22 04:30:23;;;;;;;2.72;2.00;;;;;;;;;;5014861;28;20026;-62
2021/12/22 04:32:49;;;;;;;3.80;1.80;;;;;;;;;;5013382;28;20030;-61
2021/12/22 04:35:15;;;;;;;2.58;2.13;;;;;;;;;;5014622;28;20018;-62
2021/12/22 04:37:42;;;;;;;2.75;2.00;;;;;;;;;;5013739;28;20025;-62
2021/12/22 04:40:08;;;;;;;2.63;1.80;;;;;;;;;;5014387;28;20025;-62
2021/12/22 04:42:34;;;;;;;2.60;1.90;;;;;;;;;;5013738;28;20360;-64
2021/12/22 04:45:03;;;;;;;3.38;2.42;;;;;;;;;;5014232;28;20026;-62
2021/12/22 04:47:30;;;;;;;3.22;2.20;;;;;;;;;;5014375;28;20037;-62
2021/12/22 04:49:56;;;;;;;2.67;1.92;;;;;;;;;;5013649;28;20034;-62
2021/12/22 04:52:25;;;;;;;2.78;2.00;;;;;;;;;;5013801;28;20026;-63
2021/12/22 04:55:03;;;;;;;2.53;2.00;;;;;;;;;;5013519;28;20046;-62
2021/12/22 04:57:29;;;;;;;2.67;1.92;;;;;;;;;;5013907;28;20101;-62
2021/12/22 04:59:55;;;;;;;2.83;1.88;;;;;;;;;;5013273;28;20567;-62
2021/12/22 05:02:21;;;;;;;2.53;2.05;;;;;;;;;;5014000;28;20018;-62
2021/12/22 05:04:47;;;;;;;2.65;1.73;;;;;;;;;;5013344;28;20153;-62
2021/12/22 05:07:13;;;;;;;2.25;1.75;;;;;;;;;;5013819;28;20068;-62
2021/12/22 05:09:39;;;;;;;3.20;1.95;;;;;;;;;;5013347;28;20022;-61
2021/12/22 05:12:05;;;;;;;2.75;1.85;;;;;;;;;;5011392;28;20022;-61
2021/12/22 05:14:31;;;;;;;2.20;1.95;;;;;;;;;;5014262;28;20036;-61
2021/12/22 05:17:03;;;;;;;2.17;1.80;;;;;;;;;;5013097;28;20069;-61
2021/12/22 05:19:29;;;;;;;3.00;2.05;;;;;;;;;;5013838;28;20026;-61
2021/12/22 05:21:56;;;;;;;2.33;1.63;;;;;;;;;;5012475;28;20022;-61
2021/12/22 05:24:22;;;;;;;3.05;1.92;;;;;;;;;;5013731;28;20113;-61
2021/12/22 05:26:48;;;;;;;2.40;1.90;;;;;;;;;;5013170;28;20117;-61
2021/12/22 05:29:14;;;;;;;2.25;1.88;;;;;;;;;;5013892;28;20527;-61
2021/12/22 05:31:41;;;;;;;3.50;2.08;;;;;;;;;;5012990;28;20026;-62
2021/12/22 05:34:07;;;;;;;2.97;2.67;;;;;;;;;;5013438;28;20052;-62
2021/12/22 05:36:33;;;;;;;2.63;1.75;;;;;;;;;;5013662;28;20033;-62
2021/12/22 05:38:59;;;;;;;2.53;1.90;;;;;;;;;;5012933;28;20050;-62
2021/12/22 05:41:25;;;;;;;2.67;1.70;;;;;;;;;;5013520;28;20026;-62
2021/12/22 05:43:51;;;;;;;2.75;1.80;;;;;;;;;;5012509;28;20044;-62
2021/12/22 05:46:17;;;;;;;2.70;1.98;;;;;;;;;;5013383;28;20582;-61
2021/12/22 05:48:44;;;;;;;2.80;2.00;;;;;;;;;;5012511;28;20104;-62
2021/12/22 05:51:10;;;;;;;2.03;1.83;;;;;;;;;;5013045;28;20058;-60
2021/12/22 05:53:36;;;;;;;2.03;1.75;;;;;;;;;;5012416;28;20055;-63
2021/12/22 05:56:02;;;;;;;2.38;2.00;;;;;;;;;;5013119;28;20042;-61
2021/12/22 05:58:29;;;;;;;2.25;1.80;;;;;;;;;;5012697;28;20030;-62
2021/12/22 06:00:55;;;;;;;2.88;1.75;;;;;;;;;;5007489;28;20341;-61
2021/12/22 06:03:21;;;;;;;2.67;2.10;;;;;;;;;;4997035;28;20471;-61
2021/12/22 06:05:47;;;;;;;3.15;1.90;;;;;;;;;;5011824;28;20029;-62
2021/12/22 06:08:13;;;;;;;4.40;2.15;;;;;;;;;;5012752;28;20025;-59
2021/12/22 06:10:39;;;;;;;2.05;1.75;;;;;;;;;;5008848;28;20081;-62
2021/12/22 06:13:06;;;;;;;2.20;1.77;;;;;;;;;;5022719;28;20021;-61
2021/12/22 06:15:33;;;;;;;1.92;1.50;;;;;;;;;;5032438;28;20057;-61
2021/12/22 06:18:00;;;;;;;2.70;1.90;;;;;;;;;;5031581;28;20167;-60
2021/12/22 06:20:27;;;;;;;2.72;2.38;;;;;;;;;;5017463;28;20113;-60
2021/12/22 06:22:54;;;;;;;1.95;1.65;;;;;;;;;;5013027;28;20044;-61
2021/12/22 06:25:21;;;;;;;2.85;2.20;;;;;;;;;;5012694;28;20033;-60
2021/12/22 06:27:47;;;;;;;2.83;1.70;;;;;;;;;;5011666;28;20038;-61
2021/12/22 06:30:13;;;;;;;2.65;1.85;;;;;;;;;;5011813;28;20061;-62
2021/12/22 06:32:39;;;;;;;2.00;1.50;;;;;;;;;;5010792;28;20029;-62
2021/12/22 06:35:05;;;;;;;3.38;1.92;;;;;;;;;;5010440;28;20041;-62
2021/12/22 06:37:32;;;;;;;1.88;1.50;;;;;;;;;;5011828;28;20038;-62
2021/12/22 06:39:58;;;;;;;2.47;1.75;;;;;;;;;;5010934;28;20679;-61
2021/12/22 06:42:24;;;;;;;2.33;1.88;;;;;;;;;;5010929;28;20056;-62
2021/12/22 06:44:50;;;;;;;2.80;2.08;;;;;;;;;;5011256;28;20108;-61
2021/12/22 06:47:17;;;;;;;3.03;2.45;;;;;;;;;;5012326;28;20033;-61
2021/12/22 06:49:43;;;;;;;2.95;1.90;;;;;;;;;;5011210;28;20022;-63
2021/12/22 06:52:09;;;;;;;2.67;1.63;;;;;;;;;;5004539;28;20022;-63
2021/12/22 06:54:35;;;;;;;3.92;1.80;;;;;;;;;;5010455;28;20029;-57
2021/12/22 06:57:01;;;;;;;4.00;1.90;;;;;;;;;;5011074;28;20387;-60
2021/12/22 06:59:28;;;;;;;4.40;2.00;;;;;;;;;;5011428;28;20038;-63
2021/12/22 07:01:54;;;;;;;4.15;2.30;;;;;;;;;;5011084;28;20056;-63
2021/12/22 07:04:20;;;;;;;5.28;2.42;;;;;;;;;;5010431;28;20034;-64
2021/12/22 07:06:47;;;;;;;4.70;2.65;;;;;;;;;;5007392;28;20025;-67
2021/12/22 07:09:13;;;;;;;4.57;1.80;;;;;;;;;;5011959;28;20054;-67
2021/12/22 07:11:39;;;;;;;5.05;2.13;;;;;;;;;;5011681;28;20025;-64
2021/12/22 07:14:08;;;;;;;4.28;1.95;;;;;;;;;;5029349;28;20029;-61
2021/12/22 07:16:34;;;;;;;3.47;1.60;;;;;;;;;;5017330;28;20515;-61
2021/12/22 07:19:01;;;;;;;3.22;2.47;;;;;;;;;;5011302;28;20463;-65
2021/12/22 07:21:27;;;;;;;5.10;2.17;;;;;;;;;;5011595;28;20502;-67
2021/12/22 07:23:53;;;;;;;5.85;2.42;;;;;;;;;;5009497;28;20022;-63
2021/12/22 07:26:19;;;;;;;5.95;2.35;;;;;;;;;;5011370;28;20030;-63
2021/12/22 07:28:46;;;;;;;3.25;1.83;;;;;;;;;;5011211;28;20109;-65
2021/12/22 07:31:13;;;;;;;6.03;2.28;;;;;;;;;;5004544;28;20037;-62
2021/12/22 07:33:43;;;;;;;9.90;2.40;;;;;;;;;;5011672;28;20025;-62
2021/12/22 07:36:09;;;;;;;5.28;2.65;;;;;;;;;;5016784;28;20108;-62
2021/12/22 07:38:41;;;;;;;4.53;1.92;;;;;;;;;;5015645;28;20029;-62
2021/12/22 07:41:08;;;;;;;10.57;2.83;;;;;;;;;;5015291;28;20029;-64
2021/12/22 07:43:35;;;;;;;3.70;2.17;;;;;;;;;;5015512;28;20110;-64
2021/12/22 07:46:01;;;;;;;4.40;2.25;;;;;;;;;;5013210;28;20030;-67
2021/12/22 07:48:27;;;;;;;5.05;2.20;;;;;;;;;;5015873;28;20100;-66
2021/12/22 07:50:54;;;;;;;3.58;1.88;;;;;;;;;;5014033;28;20370;-66
2021/12/22 07:53:20;;;;;;;5.78;1.92;;;;;;;;;;5014916;28;20037;-67
2021/12/22 07:55:46;;;;;;;3.63;2.10;;;;;;;;;;5012833;28;20375;-67
2021/12/22 07:58:12;;;;;;;4.30;2.10;;;;;;;;;;5015657;28;20053;-68
2021/12/22 08:00:39;;;;;;;6.28;2.00;;;;;;;;;;5022619;28;20026;-69
2021/12/22 08:03:05;;;;;;;3.40;1.67;;;;;;;;;;5013507;28;20049;-67
2021/12/22 08:05:31;;;;;;;6.72;2.60;;;;;;;;;;5013208;28;20441;-68
2021/12/22 08:07:59;;;;;;;4.05;2.05;;;;;;;;;;5019341;28;20025;-70
2021/12/22 08:10:25;;;;;;;5.38;2.58;;;;;;;;;;5007816;28;20092;-64
2021/12/22 08:12:51;;;;;;;5.93;2.38;;;;;;;;;;5023688;28;20370;-69
2021/12/22 08:15:17;;;;;;;6.00;2.50;;;;;;;;;;5029155;28;20080;-67
2021/12/22 08:17:43;;;;;;;3.80;2.10;;;;;;;;;;5014248;28;20032;-64
2021/12/22 08:20:10;;;;;;;3.22;2.38;;;;;;;;;;5014511;28;20387;-68
2021/12/22 08:22:36;;;;;;;6.80;2.28;;;;;;;;;;5014442;28;20100;-68
2021/12/22 08:25:02;;;;;;;4.47;2.17;;;;;;;;;;5014124;28;20025;-68
2021/12/22 08:27:28;;;;;;;2.90;2.00;;;;;;;;;;5014558;28;20107;-69
2021/12/22 08:29:54;;;;;;;3.55;1.85;;;;;;;;;;5013684;28;20030;-67
2021/12/22 08:32:20;;;;;;;2.67;1.63;;;;;;;;;;5011969;28;20104;-67
2021/12/22 08:34:52;;;;;;;5.05;1.75;;;;;;;;;;4996340;28;20030;-67
2021/12/22 08:40:03;;;;;;;5.32;1.98;;;;;;;;;;5011812;28;20037;-67
2021/12/22 08:42:29;;;;;;;4.18;1.92;;;;;;;;;;5013684;28;20077;-67
2021/12/22 08:44:55;;;;;;;7.07;1.90;;;;;;;;;;5012068;28;20459;-67
2021/12/22 08:47:21;;;;;;;3.85;1.90;;;;;;;;;;5013961;28;20034;-68
2021/12/22 08:49:48;;;;;;;4.97;1.92;;;;;;;;;;5013059;28;20057;-66
2021/12/22 08:52:14;;;;;;;3.03;1.80;;;;;;;;;;5013782;28;20041;-65
2021/12/22 08:54:40;;;;;;;2.78;1.85;;;;;;;;;;5014484;28;20022;-67
2021/12/22 08:57:06;;;;;;;4.22;1.85;;;;;;;;;;5012926;28;20053;-67
2021/12/22 08:59:32;;;;;;;5.10;1.85;;;;;;;;;;5012077;28;20522;-67
2021/12/22 09:01:58;;;;;;;3.65;1.75;;;;;;;;;;5013162;28;20057;-67
2021/12/22 09:04:24;;;;;;;3.38;2.17;;;;;;;;;;5013974;28;20113;-67
2021/12/22 09:06:51;;;;;;;4.63;2.35;;;;;;;;;;5008562;28;20029;-67
2021/12/22 09:09:18;;;;;;;4.97;1.88;;;;;;;;;;5007932;28;20037;-65
2021/12/22 09:11:44;;;;;;;3.03;1.92;;;;;;;;;;5013436;28;20092;-67
2021/12/22 09:14:10;;;;;;;6.97;2.30;;;;;;;;;;5032926;28;20079;-68
2021/12/22 09:16:37;;;;;;;4.30;2.25;;;;;;;;;;5033219;28;20687;-68
2021/12/22 09:19:04;;;;;;;3.65;2.00;;;;;;;;;;5014359;28;20462;-68
2021/12/22 09:21:31;;;;;;;3.55;2.03;;;;;;;;;;5013885;28;20037;-68
2021/12/22 09:23:57;;;;;;;2.28;1.50;;;;;;;;;;5012015;28;20037;-67
2021/12/22 09:26:23;;;;;;;2.70;1.92;;;;;;;;;;5012347;28;20030;-68
2021/12/22 09:28:49;;;;;;;2.90;2.13;;;;;;;;;;5011732;28;20033;-68
2021/12/22 09:31:16;;;;;;;4.75;2.00;;;;;;;;;;5013356;28;20032;-67
2021/12/22 09:33:42;;;;;;;5.25;2.05;;;;;;;;;;5013604;28;20022;-67
2021/12/22 09:36:09;;;;;;;3.20;1.92;;;;;;;;;;5012624;28;20034;-68
2021/12/22 09:38:35;;;;;;;3.30;1.85;;;;;;;;;;5013523;28;20072;-67
2021/12/22 09:41:01;;;;;;;4.10;2.38;;;;;;;;;;5011573;28;20026;-67
2021/12/22 09:43:28;;;;;;;4.90;2.30;;;;;;;;;;5002111;28;20061;-68
2021/12/22 09:45:59;;;;;;;4.57;2.13;;;;;;;;;;5014576;28;20034;-67
2021/12/22 09:53:28;;;;;;;3.47;2.25;;;;;;;;;;5012699;28;20121;-68
2021/12/22 09:55:55;;;;;;;4.38;2.50;;;;;;;;;;5011989;28;20088;-67
2021/12/22 09:58:21;;;;;;;2.42;1.92;;;;;;;;;;5012102;28;20479;-67
2021/12/22 10:00:48;;;;;;;4.45;2.20;;;;;;;;;;5011487;28;20038;-63
2021/12/22 10:03:14;;;;;;;2.58;2.17;;;;;;;;;;5012649;28;20108;-67
2021/12/22 10:05:42;;;;;;;4.07;2.70;;;;;;;;;;5011840;28;20101;-67
2021/12/22 10:08:09;;;;;;;3.78;2.25;;;;;;;;;;5012022;28;20866;-67
2021/12/22 10:10:36;;;;;;;3.95;2.17;;;;;;;;;;5010302;28;20026;-67
2021/12/22 10:13:07;;;;;;;4.05;2.50;;;;;;;;;;5010564;28;20113;-67
2021/12/22 10:15:34;;;;;;;3.28;2.38;;;;;;;;;;5012165;28;20022;-67
2021/12/22 10:18:08;;;;;;;3.15;2.03;;;;;;;;;;5011946;28;20088;-67
2021/12/22 10:20:34;;;;;;;2.80;2.03;;;;;;;;;;5012462;28;20057;-68
2021/12/22 10:23:00;;;;;;;3.58;1.92;;;;;;;;;;5011761;28;20041;-67
2021/12/22 10:25:29;;;;;;;3.47;2.22;;;;;;;;;;5011874;28;20087;-64
2021/12/22 10:27:58;;;;;;;2.63;2.03;;;;;;;;;;5011046;28;20034;-67
2021/12/22 10:30:30;;;;;;;4.95;2.70;;;;;;;;;;5012268;28;20055;-67
2021/12/22 10:33:15;;;;;;;2.55;2.30;;;;;;;;;;5010880;28;20053;-66
2021/12/22 10:35:43;;;;;;;3.47;2.25;;;;;;;;;;4992809;28;20038;-67
2021/12/22 10:38:10;;;;;;;5.18;2.10;;;;;;;;;;4992390;28;20026;-67
2021/12/22 10:40:38;;;;;;;2.95;1.90;;;;;;;;;;5001487;28;20072;-67
2021/12/22 10:43:04;;;;;;;5.50;3.13;;;;;;;;;;5007640;28;20022;-63
2021/12/22 10:45:31;;;;;;;3.88;2.25;;;;;;;;;;4999829;28;20026;-66
2021/12/22 10:50:43;;;;;;;4.47;2.38;;;;;;;;;;5007647;28;20030;-66
2021/12/22 10:53:10;;;;;;;3.15;2.33;;;;;;;;;;5011693;28;20034;-67
2021/12/22 10:55:37;;;;;;;3.55;2.15;;;;;;;;;;5011572;28;20548;-68
2021/12/22 10:58:14;;;;;;;3.22;2.28;;;;;;;;;;5009409;28;20054;-63
2021/12/22 11:00:40;;;;;;;2.97;2.00;;;;;;;;;;5008739;28;20026;-67
2021/12/22 11:03:16;;;;;;;2.58;1.90;;;;;;;;;;5010621;28;20026;-67
2021/12/22 11:05:46;;;;;;;3.42;1.98;;;;;;;;;;5007471;28;20049;-67
2021/12/22 11:08:22;;;;;;;3.10;2.00;;;;;;;;;;5011288;28;20030;-67
2021/12/22 11:10:49;;;;;;;3.35;2.00;;;;;;;;;;5008943;28;20542;-67
2021/12/22 11:13:18;;;;;;;2.58;2.05;;;;;;;;;;5019805;28;20032;-68
2021/12/22 11:15:44;;;;;;;3.33;2.00;;;;;;;;;;5012131;28;20033;-68
2021/12/22 11:18:11;;;;;;;3.80;2.10;;;;;;;;;;5007642;28;20034;-67
2021/12/22 11:20:37;;;;;;;3.15;2.10;;;;;;;;;;5007012;28;20038;-67
2021/12/22 11:23:11;;;;;;;2.67;2.00;;;;;;;;;;5000451;28;20101;-68
2021/12/22 11:25:39;;;;;;;3.22;1.90;;;;;;;;;;5012034;28;20030;-67
2021/12/22 11:28:05;;;;;;;3.85;2.42;;;;;;;;;;5011004;28;20113;-67
2021/12/22 11:30:31;;;;;;;2.90;1.80;;;;;;;;;;5011835;28;20479;-67
2021/12/22 11:32:58;;;;;;;4.22;2.05;;;;;;;;;;5011630;28;20026;-67
2021/12/22 11:35:25;;;;;;;2.25;1.98;;;;;;;;;;5011612;28;20030;-66
2021/12/22 11:37:51;;;;;;;2.85;1.90;;;;;;;;;;5010812;28;20026;-66
2021/12/22 11:40:18;;;;;;;2.75;1.65;;;;;;;;;;5011446;28;20034;-67
2021/12/22 11:42:44;;;;;;;2.33;2.08;;;;;;;;;;5011516;28;20375;-68
2021/12/22 11:45:18;;;;;;;3.28;2.05;;;;;;;;;;5011416;28;20438;-66
2021/12/22 11:47:45;;;;;;;2.63;2.03;;;;;;;;;;5012276;28;20057;-67
2021/12/22 11:50:16;;;;;;;2.22;1.88;;;;;;;;;;5011750;28;20081;-68
2021/12/22 11:53:06;;;;;;;2.90;2.10;;;;;;;;;;5011927;28;20030;-65
2021/12/22 11:55:46;;;;;;;8.32;3.75;;;;;;;;;;5011597;28;20026;-61
2021/12/22 11:58:12;;;;;;;6.80;3.53;;;;;;;;;;5010763;28;20049;-67
2021/12/22 12:00:39;;;;;;;3.97;2.83;;;;;;;;;;5011125;28;20044;-68
2021/12/22 12:03:23;;;;;;;5.30;3.03;;;;;;;;;;5010900;28;20068;-66
2021/12/22 12:06:09;;;;;;;5.95;3.13;;;;;;;;;;5009816;28;20109;-66
2021/12/22 12:08:36;;;;;;;4.53;3.13;;;;;;;;;;5017617;28;20448;-67
2021/12/22 12:11:03;;;;;;;4.85;3.28;;;;;;;;;;5010656;28;20034;-66
2021/12/22 12:13:52;;;;;;;7.47;3.45;;;;;;;;;;5024454;28;20096;-65
2021/12/22 12:21:52;;;;;;;4.03;2.97;;;;;;;;;;5033588;28;20033;-66
2021/12/22 12:24:33;;;;;;;3.58;2.30;;;;;;;;;;5034856;28;20056;-65
2021/12/22 12:27:00;;;;;;;4.65;2.42;;;;;;;;;;5034172;28;20033;-67
2021/12/22 12:29:45;;;;;;;3.53;2.38;;;;;;;;;;5023487;28;20038;-68
2021/12/22 12:32:31;;;;;;;4.50;1.90;;;;;;;;;;5014833;28;20101;-65
2021/12/22 12:35:15;;;;;;;4.60;2.53;;;;;;;;;;5014391;28;20088;-66
2021/12/22 12:38:00;;;;;;;3.03;2.25;;;;;;;;;;5014855;28;20042;-66
2021/12/22 12:40:46;;;;;;;3.53;2.05;;;;;;;;;;5014309;28;20378;-66
2021/12/22 12:43:12;;;;;;;3.38;2.90;;;;;;;;;;4984418;28;20074;-66
2021/12/22 12:45:45;;;;;;;3.17;2.67;;;;;;;;;;5014725;28;20470;-67
2021/12/22 12:48:25;;;;;;;3.20;2.47;;;;;;;;;;5014524;28;20022;-67
2021/12/22 12:51:10;;;;;;;3.25;1.90;;;;;;;;;;5014245;28;20068;-67
2021/12/22 12:53:43;;;;;;;2.55;1.90;;;;;;;;;;5014831;28;20056;-68
2021/12/22 12:56:09;;;;;;;3.33;2.20;;;;;;;;;;5013764;28;20038;-65
2021/12/22 12:58:35;;;;;;;3.15;1.90;;;;;;;;;;5013734;28;20026;-67
2021/12/22 13:01:01;;;;;;;5.95;2.72;;;;;;;;;;5013817;28;20026;-67
2021/12/22 13:03:27;;;;;;;4.18;2.03;;;;;;;;;;5014658;28;20025;-67
2021/12/22 13:05:53;;;;;;;2.28;1.73;;;;;;;;;;5013885;28;20034;-67
2021/12/22 13:08:19;;;;;;;3.63;2.17;;;;;;;;;;5014441;28;20570;-64
2021/12/22 13:10:51;;;;;;;3.42;2.38;;;;;;;;;;5013780;28;20025;-67
2021/12/22 13:13:20;;;;;;;3.35;2.15;;;;;;;;;;5026274;28;20029;-68
2021/12/22 13:15:46;;;;;;;2.42;1.60;;;;;;;;;;5034177;28;20079;-67
2021/12/22 13:18:12;;;;;;;3.72;2.17;;;;;;;;;;5033783;28;20075;-65
2021/12/22 13:20:40;;;;;;;2.40;1.92;;;;;;;;;;5034269;28;20474;-67
2021/12/22 13:23:09;;;;;;;3.20;1.80;;;;;;;;;;5033551;28;20029;-67
2021/12/22 13:25:36;;;;;;;2.83;2.00;;;;;;;;;;5033793;28;20033;-67
2021/12/22 13:28:07;;;;;;;4.30;2.08;;;;;;;;;;5033256;28;20061;-67
2021/12/22 13:30:34;;;;;;;3.85;2.33;;;;;;;;;;4994283;28;20026;-66
2021/12/22 13:33:05;;;;;;;2.95;1.98;;;;;;;;;;4992965;28;20157;-67
2021/12/22 13:35:39;;;;;;;3.45;1.77;;;;;;;;;;4994514;28;20371;-67
2021/12/22 13:38:07;;;;;;;2.08;1.75;;;;;;;;;;4993762;28;20034;-67
2021/12/22 13:40:33;;;;;;;2.75;1.75;;;;;;;;;;4996335;28;20096;-65
2021/12/22 13:42:59;;;;;;;2.88;1.85;;;;;;;;;;5012985;28;20530;-67
2021/12/22 13:45:25;;;;;;;2.30;1.63;;;;;;;;;;5013612;28;20022;-67
2021/12/22 13:47:51;;;;;;;3.17;2.20;;;;;;;;;;5012627;28;20353;-66
2021/12/22 13:50:17;;;;;;;2.75;1.83;;;;;;;;;;5013163;28;20033;-67
2021/12/22 13:52:43;;;;;;;2.58;2.08;;;;;;;;;;5013844;28;20021;-67
2021/12/22 13:55:09;;;;;;;3.65;1.67;;;;;;;;;;5012971;28;20049;-66
2021/12/22 13:57:35;;;;;;;5.10;1.65;;;;;;;;;;5013036;28;20057;-67
2021/12/22 14:00:02;;;;;;;3.58;1.65;;;;;;;;;;5011011;28;20021;-66
2021/12/22 14:02:35;;;;;;;4.00;1.92;;;;;;;;;;5012443;28;20466;-65
2021/12/22 14:05:18;;;;;;;4.13;1.98;;;;;;;;;;5011498;28;20387;-66
2021/12/22 14:07:44;;;;;;;3.50;2.03;;;;;;;;;;5012178;28;20030;-67
2021/12/22 14:10:14;;;;;;;4.97;2.42;;;;;;;;;;5011932;28;20030;-66
2021/12/22 14:12:42;;;;;;;3.80;2.10;;;;;;;;;;5008295;28;20025;-66
2021/12/22 14:15:09;;;;;;;3.42;2.33;;;;;;;;;;5030320;28;20030;-67
2021/12/22 14:17:37;;;;;;;2.78;1.77;;;;;;;;;;5011935;28;20048;-67
2021/12/22 14:20:11;;;;;;;2.38;2.10;;;;;;;;;;5011731;28;20084;-66
2021/12/22 14:22:38;;;;;;;5.07;1.92;;;;;;;;;;5012511;28;20467;-67
2021/12/22 14:25:06;;;;;;;4.40;2.15;;;;;;;;;;5011994;28;20025;-67
2021/12/22 14:27:34;;;;;;;2.75;1.73;;;;;;;;;;5012626;28;20037;-66
2021/12/22 14:30:00;;;;;;;3.88;1.63;;;;;;;;;;4999369;28;20122;-66
2021/12/22 14:32:30;;;;;;;3.53;1.67;;;;;;;;;;4993780;28;20018;-67
2021/12/22 14:35:15;;;;;;;2.28;1.73;;;;;;;;;;5002454;28;20475;-66
2021/12/22 14:37:45;;;;;;;3.97;1.55;;;;;;;;;;5012142;28;20041;-66
2021/12/22 14:40:22;;;;;;;3.25;1.50;;;;;;;;;;5011646;28;20128;-66
2021/12/22 14:42:54;;;;;;;3.15;1.77;;;;;;;;;;4998656;28;20021;-67
2021/12/22 14:45:23;;;;;;;1.83;1.50;;;;;;;;;;5012229;28;20029;-65
2021/12/22 14:48:02;;;;;;;5.47;1.95;;;;;;;;;;5011942;28;20637;-63
2021/12/22 14:50:28;;;;;;;6.38;2.08;;;;;;;;;;5012584;28;20022;-66
2021/12/22 14:52:58;;;;;;;5.28;3.10;;;;;;;;;;5010954;28;20026;-66
2021/12/22 14:55:34;;;;;;;6.72;2.72;;;;;;;;;;5010358;28;20045;-67
2021/12/22 14:58:00;;;;;;;5.50;2.63;;;;;;;;;;4995965;28;20054;-66
2021/12/22 15:00:26;;;;;;;3.85;1.98;;;;;;;;;;5011558;28;20029;-66
2021/12/22 15:02:52;;;;;;;3.03;1.73;;;;;;;;;;5011470;28;20467;-63
2021/12/22 15:05:18;;;;;;;3.75;1.83;;;;;;;;;;5012107;28;20041;-66
2021/12/22 15:07:44;;;;;;;6.25;2.45;;;;;;;;;;5012264;28;20025;-68
2021/12/22 15:10:11;;;;;;;5.68;2.25;;;;;;;;;;5011151;28;20127;-66
2021/12/22 15:12:37;;;;;;;7.85;1.88;;;;;;;;;;4995884;28;20030;-67
2021/12/22 15:15:03;;;;;;;5.25;1.77;;;;;;;;;;5012662;28;20025;-67
2021/12/22 15:17:29;;;;;;;6.22;2.33;;;;;;;;;;5010628;28;20386;-68
2021/12/22 15:19:55;;;;;;;2.42;2.05;;;;;;;;;;5012037;28;20026;-71